createdAt,value
2019-05-23T00:01:05.795Z,100993.88
2019-05-23T00:04:04.057Z,100990.33
2019-05-23T00:06:54.021Z,100995.06
2019-05-23T00:09:43.441Z,100988.45
2019-05-23T00:12:33.048Z,100989.86
2019-05-23T00:15:23.195Z,100993.91
2019-05-23T00:17:54.744Z,100992.59
2019-05-23T00:20:25.834Z,100994.91
2019-05-23T00:22:57.463Z,100996.48
2019-05-23T00:25:30.480Z,100994.38
2019-05-23T00:28:04.875Z,100992.27
2019-05-23T00:30:44.991Z,100986.98
2019-05-23T00:33:21.214Z,101003.26
2019-05-23T00:35:52.621Z,100991.42
2019-05-23T00:38:24.912Z,100995.86
2019-05-23T00:40:56.492Z,100994.78
2019-05-23T00:43:27.919Z,100977.62
2019-05-23T00:45:59.944Z,100977.62
2019-05-23T00:48:32.013Z,100984.73
2019-05-23T00:51:05.325Z,100986.86
2019-05-23T00:53:36.792Z,100984.08
2019-05-23T00:56:09.689Z,100983.73
2019-05-23T00:58:41.075Z,100979.19
2019-05-23T01:01:13.450Z,100978.56
2019-05-23T01:03:45.514Z,100981.13
2019-05-23T01:06:17.915Z,100982.45
2019-05-23T01:08:50.098Z,100986.48
2019-05-23T01:11:21.574Z,100989.31
2019-05-23T01:13:52.658Z,100985.58
2019-05-23T01:16:24.147Z,100980.69
2019-05-23T01:18:55.737Z,100981.38
2019-05-23T01:21:55.086Z,100982.64
2019-05-23T01:24:30.387Z,100987.95
2019-05-23T01:27:02.343Z,100982.61
2019-05-23T01:29:39.686Z,100984.08
2019-05-23T01:32:25.749Z,100972.56
2019-05-23T01:34:58.758Z,100979.11
2019-05-23T01:37:30.726Z,100984.25
2019-05-23T01:40:02.070Z,100974.16
2019-05-23T01:42:35.091Z,100974.16
2019-05-23T01:45:08.717Z,100983.97
2019-05-23T01:47:40.568Z,100979.65
2019-05-23T01:50:14.063Z,100983.34
2019-05-23T01:52:45.504Z,100983.34
2019-05-23T01:55:17.160Z,100987.95
2019-05-23T01:57:49.102Z,100983.45
2019-05-23T02:00:21.179Z,100987.11
2019-05-23T02:02:54.832Z,100989.91
2019-05-23T02:05:26.061Z,100993.23
2019-05-23T02:07:58.297Z,100996.86
2019-05-23T02:10:29.356Z,100996.86
2019-05-23T02:13:00.912Z,100998.50
2019-05-23T02:15:33.327Z,100996.67
2019-05-23T02:18:04.596Z,100999.16
2019-05-23T02:20:37.941Z,101002.10
2019-05-23T02:23:09.577Z,100999.89
2019-05-23T02:25:42.831Z,101004.84
2019-05-23T02:28:15.267Z,101001.20
2019-05-23T02:30:47.842Z,101002.38
2019-05-23T02:33:19.614Z,101005.76
2019-05-23T02:35:51.710Z,101002.05
2019-05-23T02:38:31.325Z,100998.73
2019-05-23T02:41:20.049Z,100997.05
2019-05-23T02:43:54.823Z,101000.42
2019-05-23T02:46:31.579Z,100997.39
2019-05-23T02:49:07.259Z,101000.70
2019-05-23T02:51:39.254Z,101004.48
2019-05-23T02:54:13.965Z,100999.67
2019-05-23T02:56:45.954Z,100992.91
2019-05-23T02:59:35.371Z,100999.81
2019-05-23T03:03:02.365Z,100994.80
2019-05-23T03:05:37.566Z,101002.84
2019-05-23T03:08:10.086Z,100994.30
2019-05-23T03:10:54.537Z,100991.42
2019-05-23T03:13:28.491Z,100991.88
2019-05-23T03:16:00.980Z,100986.53
2019-05-23T03:18:35.773Z,100987.41
2019-05-23T03:21:09.204Z,100986.73
2019-05-23T03:23:40.576Z,100983.89
2019-05-23T03:26:44.115Z,100980.20
2019-05-23T03:29:16.132Z,100985.75
2019-05-23T03:32:04.962Z,100976.70
2019-05-23T03:34:36.739Z,100973.09
2019-05-23T03:37:07.892Z,100973.98
2019-05-23T03:39:39.766Z,100979.14
2019-05-23T03:42:12.685Z,100975.50
2019-05-23T03:44:45.072Z,100979.17
2019-05-23T03:47:18.414Z,100979.20
2019-05-23T03:49:50.234Z,100969.12
2019-05-23T03:52:23.663Z,100969.36
2019-05-23T03:54:56.609Z,100972.77
2019-05-23T03:57:29.232Z,100969.43
2019-05-23T04:00:01.883Z,100969.14
2019-05-23T04:02:33.102Z,100969.02
2019-05-23T04:05:04.618Z,100968.61
2019-05-23T04:07:36.449Z,100968.11
2019-05-23T04:10:09.308Z,100969.34
2019-05-23T04:12:40.597Z,100976.06
2019-05-23T04:15:12.789Z,100976.06
2019-05-23T04:17:44.303Z,100974.23
2019-05-23T04:20:15.643Z,100971.19
2019-05-23T04:22:46.604Z,100974.84
2019-05-23T04:25:17.683Z,100974.69
2019-05-23T04:27:49.119Z,100976.78
2019-05-23T04:30:20.162Z,100968.84
2019-05-23T04:32:51.134Z,100971.07
2019-05-23T04:35:22.857Z,100979.75
2019-05-23T04:37:54.276Z,100980.69
2019-05-23T04:40:25.732Z,100969.02
2019-05-23T04:42:57.021Z,100980.95
2019-05-23T04:45:28.816Z,100970.08
2019-05-23T04:48:00.266Z,100980.75
2019-05-23T04:50:32.355Z,100980.16
2019-05-23T04:53:04.305Z,100982.86
2019-05-23T04:55:38.139Z,100979.37
2019-05-23T04:58:09.805Z,100982.06
2019-05-23T05:00:42.181Z,100986.77
2019-05-23T05:03:18.385Z,100978.92
2019-05-23T05:05:49.564Z,100981.29
2019-05-23T05:08:23.177Z,100997.30
2019-05-23T05:10:55.131Z,100997.66
2019-05-23T05:13:26.836Z,100999.09
2019-05-23T05:15:58.214Z,100995.83
2019-05-23T05:18:30.006Z,100998.92
2019-05-23T05:21:01.454Z,100991.90
2019-05-23T05:23:32.796Z,100996.67
2019-05-23T05:26:04.611Z,101004.09
2019-05-23T05:28:36.184Z,101001.37
2019-05-23T05:31:07.574Z,101002.45
2019-05-23T05:33:39.561Z,101004.17
2019-05-23T05:36:11.500Z,101007.51
2019-05-23T05:38:42.653Z,101009.28
2019-05-23T05:41:14.606Z,101009.76
2019-05-23T05:43:46.209Z,101018.14
2019-05-23T05:46:17.459Z,101021.52
2019-05-23T05:48:48.499Z,101018.97
2019-05-23T05:51:19.723Z,101027.27
2019-05-23T05:53:51.243Z,101020.77
2019-05-23T05:56:22.355Z,101019.70
2019-05-23T05:58:53.487Z,101021.61
2019-05-23T06:01:33.790Z,101023.98
2019-05-23T06:03:57.942Z,101025.08
2019-05-23T06:06:40.032Z,101028.28
2019-05-23T06:09:21.383Z,101029.84
2019-05-23T06:11:52.785Z,101036.03
2019-05-23T06:14:24.351Z,101031.45
2019-05-23T06:16:56.921Z,101038.98
2019-05-23T06:19:28.241Z,101043.02
2019-05-23T06:21:59.540Z,101042.41
2019-05-23T06:24:44.883Z,101047.13
2019-05-23T06:27:03.821Z,101043.42
2019-05-23T06:29:34.855Z,101048.88
2019-05-23T06:32:08.052Z,101052.11
2019-05-23T06:34:39.298Z,101048.40
2019-05-23T06:37:12.711Z,101050.01
2019-05-23T06:39:43.954Z,101040.78
2019-05-23T06:42:15.062Z,101045.66
2019-05-23T06:44:47.094Z,101038.13
2019-05-23T06:47:18.477Z,101043.56
2019-05-23T06:49:49.587Z,101039.78
2019-05-23T06:52:20.929Z,101041.48
2019-05-23T06:54:51.928Z,101035.72
2019-05-23T06:57:23.552Z,101045.50
2019-05-23T06:59:54.907Z,101045.76
2019-05-23T07:02:31.224Z,101046.92
2019-05-23T07:04:59.953Z,101041.82
2019-05-23T07:07:32.565Z,101047.05
2019-05-23T07:10:05.623Z,101040.18
2019-05-23T07:12:37.410Z,101038.97
2019-05-23T07:15:09.069Z,101035.06
2019-05-23T07:17:40.603Z,101037.89
2019-05-23T07:20:12.912Z,101041.52
2019-05-23T07:22:44.485Z,101039.84
2019-05-23T07:25:15.461Z,101043.30
2019-05-23T07:27:46.538Z,101041.18
2019-05-23T07:30:21.309Z,101040.64
2019-05-23T07:32:53.920Z,101044.30
2019-05-23T07:35:25.989Z,101051.45
2019-05-23T07:37:57.338Z,101041.84
2019-05-23T07:40:28.904Z,101042.66
2019-05-23T07:43:00.984Z,101039.83
2019-05-23T07:45:39.894Z,101039.03
2019-05-23T07:48:12.178Z,101037.27
2019-05-23T07:50:44.345Z,101035.10
2019-05-23T07:53:20.736Z,101036.59
2019-05-23T07:55:52.988Z,101039.50
2019-05-23T07:58:24.320Z,101042.08
2019-05-23T08:00:58.955Z,101049.41
2019-05-23T08:03:31.678Z,101039.14
2019-05-23T08:06:03.067Z,101042.38
2019-05-23T08:08:34.448Z,101037.37
2019-05-23T08:11:05.565Z,101031.69
2019-05-23T08:13:37.407Z,101038.97
2019-05-23T08:16:08.934Z,101036.23
2019-05-23T08:18:40.036Z,101032.56
2019-05-23T08:21:11.285Z,101035.13
2019-05-23T08:23:42.745Z,101039.38
2019-05-23T08:26:15.387Z,101032.47
2019-05-23T08:29:21.735Z,101032.44
2019-05-23T08:31:20.270Z,101034.74
2019-05-23T08:33:51.439Z,101033.09
2019-05-23T08:36:22.981Z,101035.19
2019-05-23T08:38:54.369Z,101041.42
2019-05-23T08:41:25.680Z,101027.66
2019-05-23T08:43:56.824Z,101033.02
2019-05-23T08:46:28.480Z,101035.66
2019-05-23T08:49:00.707Z,101037.03
2019-05-23T08:51:32.858Z,101034.70
2019-05-23T08:54:04.269Z,101036.05
2019-05-23T08:56:35.286Z,101039.63
2019-05-23T08:59:06.507Z,101034.36
2019-05-23T09:01:37.795Z,101032.59
2019-05-23T09:04:10.171Z,101034.99
2019-05-23T09:06:42.621Z,101034.20
2019-05-23T09:09:29.016Z,101033.98
2019-05-23T09:11:49.707Z,101026.62
2019-05-23T09:14:21.853Z,101023.64
2019-05-23T09:16:53.233Z,101024.39
2019-05-23T09:19:24.886Z,101024.30
2019-05-23T09:21:58.023Z,101021.20
2019-05-23T09:24:28.713Z,101018.89
2019-05-23T09:27:00.706Z,101019.84
2019-05-23T09:29:32.656Z,101015.53
2019-05-23T09:32:04.212Z,101015.09
2019-05-23T09:34:35.274Z,101011.83
2019-05-23T09:37:08.279Z,101020.49
2019-05-23T09:39:41.339Z,101010.64
2019-05-23T09:42:12.713Z,101019.13
2019-05-23T09:44:44.037Z,101012.37
2019-05-23T09:47:15.366Z,101011.16
2019-05-23T09:49:53.664Z,101005.11
2019-05-23T09:52:21.606Z,101003.38
2019-05-23T09:54:52.579Z,101008.67
2019-05-23T09:57:23.640Z,101004.97
2019-05-23T09:59:57.010Z,101002.09
2019-05-23T10:02:28.246Z,101001.40
2019-05-23T10:04:59.279Z,100996.98
2019-05-23T10:07:30.628Z,100997.93
2019-05-23T10:10:01.632Z,101002.58
2019-05-23T10:12:33.872Z,100991.70
2019-05-23T10:15:05.535Z,101000.11
2019-05-23T10:17:36.890Z,100997.42
2019-05-23T10:20:08.347Z,100994.23
2019-05-23T10:22:39.873Z,100999.19
2019-05-23T10:25:11.092Z,100998.05
2019-05-23T10:27:42.419Z,100997.28
2019-05-23T10:30:15.225Z,100996.11
2019-05-23T10:32:46.712Z,100991.83
2019-05-23T10:35:18.231Z,100994.59
2019-05-23T10:37:49.325Z,100991.92
2019-05-23T10:40:22.132Z,100989.50
2019-05-23T10:42:53.161Z,100989.13
2019-05-23T10:45:24.199Z,100985.89
2019-05-23T10:47:55.657Z,100977.92
2019-05-23T10:50:26.742Z,100979.28
2019-05-23T10:52:57.991Z,100974.19
2019-05-23T10:55:29.100Z,100972.25
2019-05-23T10:58:01.453Z,100962.99
2019-05-23T11:00:32.905Z,100966.37
2019-05-23T11:03:04.332Z,100962.53
2019-05-23T11:05:36.419Z,100969.78
2019-05-23T11:08:07.576Z,100958.75
2019-05-23T11:10:39.131Z,100967.34
2019-05-23T11:13:10.510Z,100960.77
2019-05-23T11:15:42.252Z,100964.20
2019-05-23T11:18:14.172Z,100960.86
2019-05-23T11:20:45.687Z,100957.53
2019-05-23T11:23:25.750Z,100957.66
2019-05-23T11:26:00.883Z,100960.20
2019-05-23T11:28:31.720Z,100955.95
2019-05-23T11:31:03.156Z,100956.56
2019-05-23T11:33:34.545Z,100951.45
2019-05-23T11:36:06.766Z,100945.98
2019-05-23T11:38:38.061Z,100945.53
2019-05-23T11:41:09.660Z,100941.39
2019-05-23T11:43:41.986Z,100937.09
2019-05-23T11:46:30.752Z,100929.42
2019-05-23T11:49:03.234Z,100935.34
2019-05-23T11:51:35.881Z,100935.45
2019-05-23T11:54:09.695Z,100937.16
2019-05-23T11:56:42.703Z,100931.30
2019-05-23T11:59:13.816Z,100927.00
2019-05-23T12:02:07.517Z,100926.64
2019-05-23T12:04:42.956Z,100922.88
2019-05-23T12:07:18.204Z,100920.28
2019-05-23T12:09:49.527Z,100922.55
2019-05-23T12:12:20.777Z,100907.15
2019-05-23T12:14:53.540Z,100910.94
2019-05-23T12:17:26.459Z,100910.93
2019-05-23T12:19:57.624Z,100905.48
2019-05-23T12:22:29.488Z,100905.07
2019-05-23T12:25:18.303Z,100895.08
2019-05-23T12:27:33.178Z,100897.48
2019-05-23T12:30:06.382Z,100899.09
2019-05-23T12:32:38.719Z,100904.45
2019-05-23T12:35:11.828Z,100909.86
2019-05-23T12:37:42.851Z,100907.57
2019-05-23T12:40:14.471Z,100891.95
2019-05-23T12:42:45.884Z,100887.53
2019-05-23T12:45:17.484Z,100890.16
2019-05-23T12:47:56.979Z,100885.83
2019-05-23T12:50:32.410Z,100886.98
2019-05-23T12:53:03.533Z,100884.09
2019-05-23T12:55:35.163Z,100876.98
2019-05-23T12:58:06.517Z,100880.89
2019-05-23T13:00:45.240Z,100878.77
2019-05-23T13:03:16.601Z,100871.70
2019-05-23T13:05:48.027Z,100870.80
2019-05-23T13:08:19.772Z,100863.95
2019-05-23T13:10:51.317Z,100861.58
2019-05-23T13:13:22.648Z,100865.70
2019-05-23T13:15:54.043Z,100864.83
2019-05-23T13:18:25.657Z,100861.11
2019-05-23T13:20:59.546Z,100866.47
2019-05-23T13:23:30.098Z,100861.66
2019-05-23T13:26:01.320Z,100861.26
2019-05-23T13:28:32.454Z,100862.01
2019-05-23T13:31:03.734Z,100853.89
2019-05-23T13:33:35.095Z,100855.77
2019-05-23T13:36:07.550Z,100850.27
2019-05-23T13:38:38.739Z,100853.78
2019-05-23T13:41:10.331Z,100848.32
2019-05-23T13:43:41.549Z,100850.54
2019-05-23T13:46:12.603Z,100848.73
2019-05-23T13:48:43.619Z,100842.94
2019-05-23T13:51:15.604Z,100841.17
2019-05-23T13:53:48.380Z,100836.29
2019-05-23T13:56:20.119Z,100843.80
2019-05-23T13:58:53.125Z,100836.83
2019-05-23T14:01:24.815Z,100837.24
2019-05-23T14:03:58.380Z,100837.75
2019-05-23T14:06:30.465Z,100832.73
2019-05-23T14:09:01.544Z,100831.57
2019-05-23T14:11:33.770Z,100821.84
2019-05-23T14:14:06.273Z,100818.80
2019-05-23T14:16:46.876Z,100816.25
2019-05-23T14:19:18.324Z,100821.60
2019-05-23T14:21:49.706Z,100827.67
2019-05-23T14:24:20.757Z,100816.32
2019-05-23T14:26:59.246Z,100822.52
2019-05-23T14:29:30.762Z,100821.28
2019-05-23T14:32:20.060Z,100812.80
2019-05-23T14:34:51.124Z,100816.67
2019-05-23T14:37:28.594Z,100812.38
2019-05-23T14:40:09.226Z,100811.67
2019-05-23T14:42:47.009Z,100816.36
2019-05-23T14:45:36.381Z,100809.70
2019-05-23T14:48:25.819Z,100812.93
2019-05-23T14:51:04.127Z,100808.66
2019-05-23T14:53:35.820Z,100801.16
2019-05-23T14:56:07.461Z,100800.84
2019-05-23T14:58:39.029Z,100793.33
2019-05-23T15:01:11.524Z,100795.34
2019-05-23T15:03:43.494Z,100793.58
2019-05-23T15:06:14.645Z,100783.59
2019-05-23T15:08:51.343Z,100783.59
2019-05-23T15:11:19.744Z,100778.11
2019-05-23T15:13:51.049Z,100778.90
2019-05-23T15:16:22.532Z,100785.35
2019-05-23T15:18:53.589Z,100786.05
2019-05-23T15:21:24.682Z,100776.90
2019-05-23T15:23:59.981Z,100773.97
2019-05-23T15:26:31.214Z,100779.22
2019-05-23T15:29:02.624Z,100775.78
2019-05-23T15:31:33.904Z,100777.31
2019-05-23T15:34:05.221Z,100775.94
2019-05-23T15:36:36.489Z,100770.77
2019-05-23T15:39:10.539Z,100767.56
2019-05-23T15:41:44.551Z,100768.29
2019-05-23T15:44:26.622Z,100759.02
2019-05-23T15:46:52.930Z,100761.50
2019-05-23T15:49:24.262Z,100768.03
2019-05-23T15:52:14.377Z,100754.70
2019-05-23T15:54:50.179Z,100754.84
2019-05-23T15:57:38.902Z,100759.09
2019-05-23T16:00:28.227Z,100759.30
2019-05-23T16:03:13.704Z,100756.55
2019-05-23T16:05:45.312Z,100754.39
2019-05-23T16:08:16.836Z,100754.77
2019-05-23T16:10:48.002Z,100755.22
2019-05-23T16:13:18.978Z,100753.06
2019-05-23T16:15:50.119Z,100752.65
2019-05-23T16:18:32.865Z,100745.30
2019-05-23T16:21:04.226Z,100745.48
2019-05-23T16:23:35.250Z,100746.31
2019-05-23T16:26:06.780Z,100737.80
2019-05-23T16:28:38.126Z,100745.94
2019-05-23T16:31:09.709Z,100743.11
2019-05-23T16:33:40.995Z,100739.33
2019-05-23T16:36:12.380Z,100736.78
2019-05-23T16:38:43.887Z,100732.79
2019-05-23T16:41:14.834Z,100732.28
2019-05-23T16:43:46.100Z,100724.31
2019-05-23T16:46:17.614Z,100733.16
2019-05-23T16:48:48.630Z,100726.85
2019-05-23T16:51:19.737Z,100721.17
2019-05-23T16:53:51.535Z,100725.55
2019-05-23T16:56:33.688Z,100724.06
2019-05-23T16:59:22.724Z,100722.29
2019-05-23T17:02:06.729Z,100725.89
2019-05-23T17:04:45.708Z,100722.25
2019-05-23T17:07:30.077Z,100719.36
2019-05-23T17:10:12.346Z,100718.84
2019-05-23T17:13:02.445Z,100722.30
2019-05-23T17:15:54.258Z,100720.20
2019-05-23T17:18:43.431Z,100714.80
2019-05-23T17:21:27.852Z,100707.91
2019-05-23T17:24:09.639Z,100710.36
2019-05-23T17:26:55.248Z,100706.02
2019-05-23T17:29:31.642Z,100711.45
2019-05-23T17:32:04.600Z,100705.56
2019-05-23T17:34:36.787Z,100708.91
2019-05-23T17:37:10.441Z,100707.05
2019-05-23T17:39:44.647Z,100703.62
2019-05-23T17:42:15.987Z,100703.55
2019-05-23T17:44:47.957Z,100705.77
2019-05-23T17:47:19.412Z,100709.16
2019-05-23T17:49:50.934Z,100703.62
2019-05-23T17:52:23.530Z,100705.52
2019-05-23T17:54:55.094Z,100704.87
2019-05-23T17:57:26.807Z,100699.74
2019-05-23T17:59:58.048Z,100709.52
2019-05-23T18:02:30.512Z,100711.01
2019-05-23T18:05:02.158Z,100713.45
2019-05-23T18:07:35.071Z,100708.73
2019-05-23T18:10:06.920Z,100706.88
2019-05-23T18:12:38.228Z,100711.42
2019-05-23T18:15:12.348Z,100708.32
2019-05-23T18:17:45.007Z,100712.64
2019-05-23T18:20:16.354Z,100708.36
2019-05-23T18:22:47.757Z,100709.95
2019-05-23T18:25:19.426Z,100707.96
2019-05-23T18:27:51.664Z,100709.30
2019-05-23T18:30:45.324Z,100710.65
2019-05-23T18:33:19.552Z,100708.80
2019-05-23T18:35:51.810Z,100705.75
2019-05-23T18:38:23.297Z,100704.27
2019-05-23T18:41:03.996Z,100706.05
2019-05-23T18:43:28.677Z,100708.16
2019-05-23T18:46:02.593Z,100711.20
2019-05-23T18:48:35.069Z,100708.31
2019-05-23T18:51:06.652Z,100705.92
2019-05-23T18:53:38.173Z,100705.01
2019-05-23T18:56:09.253Z,100706.47
2019-05-23T18:58:40.371Z,100713.13
2019-05-23T19:01:14.080Z,100712.84
2019-05-23T19:03:45.105Z,100709.95
2019-05-23T19:06:16.495Z,100708.75
2019-05-23T19:08:49.901Z,100713.43
2019-05-23T19:11:21.973Z,100708.39
2019-05-23T19:13:53.404Z,100706.61
2019-05-23T19:16:24.635Z,100706.44
2019-05-23T19:18:56.583Z,100712.90
2019-05-23T19:21:29.449Z,100711.44
2019-05-23T19:24:01.210Z,100712.99
2019-05-23T19:26:33.491Z,100711.81
2019-05-23T19:29:04.958Z,100715.17
2019-05-23T19:31:36.378Z,100717.28
2019-05-23T19:34:07.850Z,100723.55
2019-05-23T19:36:39.396Z,100724.86
2019-05-23T19:39:11.611Z,100727.26
2019-05-23T19:41:43.321Z,100714.23
2019-05-23T19:44:14.692Z,100714.23
2019-05-23T19:46:45.690Z,100729.00
2019-05-23T19:49:16.807Z,100718.40
2019-05-23T19:51:47.923Z,100721.95
2019-05-23T19:54:19.660Z,100719.00
2019-05-23T19:56:50.741Z,100721.58
2019-05-23T19:59:22.186Z,100719.23
2019-05-23T20:02:15.415Z,100722.28
2019-05-23T20:04:53.260Z,100717.89
2019-05-23T20:07:24.436Z,100716.78
2019-05-23T20:09:57.487Z,100715.05
2019-05-23T20:12:28.830Z,100710.14
2019-05-23T20:15:00.953Z,100711.29
2019-05-23T20:17:33.243Z,100711.25
2019-05-23T20:20:05.067Z,100706.94
2019-05-23T20:22:36.066Z,100701.22
2019-05-23T20:25:07.688Z,100707.20
2019-05-23T20:27:38.679Z,100705.16
2019-05-23T20:30:13.177Z,100706.07
2019-05-23T20:32:44.312Z,100710.53
2019-05-23T20:35:15.551Z,100699.61
2019-05-23T20:37:46.690Z,100706.92
2019-05-23T20:40:17.753Z,100708.23
2019-05-23T20:42:48.772Z,100704.11
2019-05-23T20:45:19.879Z,100704.38
2019-05-23T20:47:51.108Z,100702.23
2019-05-23T20:50:22.179Z,100702.56
2019-05-23T20:52:54.025Z,100700.67
2019-05-23T20:55:25.112Z,100705.28
2019-05-23T20:57:56.448Z,100709.77
2019-05-23T21:00:45.347Z,100704.78
2019-05-23T21:03:16.990Z,100709.41
2019-05-23T21:05:48.380Z,100704.58
2019-05-23T21:08:20.878Z,100700.81
2019-05-23T21:10:52.255Z,100709.17
2019-05-23T21:13:23.354Z,100705.05
2019-05-23T21:15:54.959Z,100703.84
2019-05-23T21:18:35.182Z,100703.96
2019-05-23T21:21:07.432Z,100700.80
2019-05-23T21:23:38.921Z,100706.52
2019-05-23T21:26:10.003Z,100708.82
2019-05-23T21:28:41.038Z,100710.63
2019-05-23T21:31:17.047Z,100709.90
2019-05-23T21:33:48.316Z,100702.14
2019-05-23T21:36:19.656Z,100714.79
2019-05-23T21:38:50.955Z,100712.20
2019-05-23T21:41:22.008Z,100716.37
2019-05-23T21:43:54.798Z,100712.26
2019-05-23T21:46:26.144Z,100710.47
2019-05-23T21:48:57.457Z,100707.22
2019-05-23T21:51:28.518Z,100703.23
2019-05-23T21:53:59.821Z,100704.00
2019-05-23T21:56:31.058Z,100699.36
2019-05-23T21:59:02.365Z,100704.34
2019-05-23T22:01:38.651Z,100692.19
2019-05-23T22:04:30.415Z,100696.60
2019-05-23T22:07:02.788Z,100695.52
2019-05-23T22:09:34.532Z,100689.95
2019-05-23T22:12:06.633Z,100692.98
2019-05-23T22:14:37.715Z,100690.61
2019-05-23T22:17:08.685Z,100690.57
2019-05-23T22:19:39.910Z,100693.45
2019-05-23T22:22:11.171Z,100685.62
2019-05-23T22:24:42.552Z,100685.37
2019-05-23T22:27:13.627Z,100681.39
2019-05-23T22:29:44.733Z,100680.87
2019-05-23T22:32:17.464Z,100676.61
2019-05-23T22:34:56.723Z,100675.86
2019-05-23T22:37:29.694Z,100666.92
2019-05-23T22:40:00.750Z,100666.31
2019-05-23T22:42:32.038Z,100665.23
2019-05-23T22:45:04.713Z,100665.52
2019-05-23T22:47:35.923Z,100659.62
2019-05-23T22:50:07.801Z,100639.41
2019-05-23T22:52:38.812Z,100656.30
2019-05-23T22:55:09.886Z,100658.14
2019-05-23T22:57:40.850Z,100656.55
2019-05-23T23:00:14.039Z,100653.02
2019-05-23T23:02:46.060Z,100651.34
2019-05-23T23:05:17.354Z,100644.20
2019-05-23T23:07:48.788Z,100650.01
2019-05-23T23:10:19.789Z,100642.12
2019-05-23T23:12:50.817Z,100638.00
2019-05-23T23:15:22.055Z,100643.94
2019-05-23T23:17:53.139Z,100644.78
2019-05-23T23:20:24.354Z,100637.80
2019-05-23T23:22:55.343Z,100637.80
2019-05-23T23:25:26.312Z,100633.33
2019-05-23T23:27:57.782Z,100633.11
2019-05-23T23:30:31.761Z,100633.81
2019-05-23T23:33:03.014Z,100630.51
2019-05-23T23:35:34.186Z,100627.19
2019-05-23T23:38:05.515Z,100626.84
2019-05-23T23:40:36.602Z,100626.45
2019-05-23T23:43:07.608Z,100626.45
2019-05-23T23:45:56.520Z,100629.21
2019-05-23T23:48:45.312Z,100621.16
2019-05-23T23:51:34.010Z,100622.97
2019-05-23T23:54:22.447Z,100624.00
2019-05-23T23:57:11.011Z,100622.75
2019-05-23T23:59:42.679Z,100622.70
